createdAt,value
2019-05-16T00:01:52.420Z,100289.64
2019-05-16T00:04:19.189Z,100288.34
2019-05-16T00:06:47.988Z,100289.40
2019-05-16T00:09:14.342Z,100278.88
2019-05-16T00:11:41.130Z,100285.62
2019-05-16T00:14:08.426Z,100287.16
2019-05-16T00:16:37.851Z,100283.72
2019-05-16T00:19:03.984Z,100279.23
2019-05-16T00:21:30.605Z,100278.20
2019-05-16T00:23:58.645Z,100275.23
2019-05-16T00:26:25.383Z,100278.88
2019-05-16T00:28:52.052Z,100277.80
2019-05-16T00:31:18.637Z,100277.56
2019-05-16T00:33:45.327Z,100277.69
2019-05-16T00:36:12.134Z,100273.80
2019-05-16T00:38:38.697Z,100273.46
2019-05-16T00:41:05.479Z,100261.27
2019-05-16T00:43:32.186Z,100269.42
2019-05-16T00:45:59.175Z,100257.15
2019-05-16T00:48:28.843Z,100258.69
2019-05-16T00:50:58.279Z,100258.11
2019-05-16T00:53:24.507Z,100267.14
2019-05-16T00:55:52.569Z,100259.82
2019-05-16T00:58:20.092Z,100253.80
2019-05-16T01:00:49.843Z,100247.11
2019-05-16T01:03:19.879Z,100247.56
2019-05-16T01:05:48.104Z,100243.66
2019-05-16T01:08:15.114Z,100246.95
2019-05-16T01:13:18.563Z,100247.67
2019-05-16T01:15:45.580Z,100261.70
2019-05-16T01:18:12.296Z,100246.49
2019-05-16T01:20:40.732Z,100245.41
2019-05-16T01:23:08.865Z,100243.28
2019-05-16T01:25:35.748Z,100242.73
2019-05-16T01:28:02.431Z,100245.44
2019-05-16T01:30:29.180Z,100242.92
2019-05-16T01:32:58.135Z,100247.03
2019-05-16T01:35:24.518Z,100249.88
2019-05-16T01:37:51.202Z,100243.74
2019-05-16T01:40:18.888Z,100234.45
2019-05-16T01:42:45.867Z,100230.92
2019-05-16T01:45:13.189Z,100229.03
2019-05-16T01:47:39.947Z,100233.03
2019-05-16T01:50:08.679Z,100222.17
2019-05-16T01:52:38.069Z,100227.09
2019-05-16T01:55:04.692Z,100230.35
2019-05-16T01:57:31.284Z,100225.16
2019-05-16T01:59:58.952Z,100218.09
2019-05-16T02:02:25.946Z,100217.84
2019-05-16T02:04:52.638Z,100215.70
2019-05-16T02:07:19.413Z,100213.25
2019-05-16T02:09:47.647Z,100212.19
2019-05-16T02:12:14.511Z,100208.41
2019-05-16T02:14:41.194Z,100210.06
2019-05-16T02:17:08.686Z,100204.62
2019-05-16T02:19:38.486Z,100198.59
2019-05-16T02:22:05.208Z,100203.09
2019-05-16T02:24:32.043Z,100191.17
2019-05-16T02:26:59.145Z,100196.02
2019-05-16T02:29:25.933Z,100192.41
2019-05-16T02:31:52.687Z,100182.51
2019-05-16T02:34:21.818Z,100181.45
2019-05-16T02:37:09.568Z,100188.02
2019-05-16T02:39:16.622Z,100187.16
2019-05-16T02:41:46.264Z,100182.87
2019-05-16T02:44:12.318Z,100181.31
2019-05-16T02:46:41.850Z,100178.73
2019-05-16T02:49:11.333Z,100178.31
2019-05-16T02:51:36.720Z,100180.91
2019-05-16T02:54:03.939Z,100176.95
2019-05-16T02:56:31.779Z,100173.78
2019-05-16T02:59:01.640Z,100175.31
2019-05-16T03:01:27.389Z,100172.52
2019-05-16T03:03:54.224Z,100168.07
2019-05-16T03:06:21.897Z,100167.05
2019-05-16T03:08:50.785Z,100165.60
2019-05-16T03:11:20.836Z,100165.30
2019-05-16T03:13:47.374Z,100165.56
2019-05-16T03:16:15.335Z,100169.25
2019-05-16T03:18:42.407Z,100162.41
2019-05-16T03:21:11.333Z,100157.49
2019-05-16T03:23:41.693Z,100156.09
2019-05-16T03:26:06.963Z,100155.86
2019-05-16T03:28:33.653Z,100151.17
2019-05-16T03:31:05.397Z,100148.47
2019-05-16T03:33:38.948Z,100141.92
2019-05-16T03:35:57.585Z,100151.59
2019-05-16T03:38:24.338Z,100143.03
2019-05-16T03:40:52.367Z,100142.65
2019-05-16T03:43:21.960Z,100134.73
2019-05-16T03:45:52.223Z,100137.70
2019-05-16T03:48:17.315Z,100130.84
2019-05-16T03:50:44.016Z,100141.20
2019-05-16T03:53:11.625Z,100136.25
2019-05-16T03:55:40.703Z,100137.62
2019-05-16T03:58:07.185Z,100140.66
2019-05-16T04:01:02.276Z,100135.52
2019-05-16T04:03:32.107Z,100136.97
2019-05-16T04:05:56.751Z,100133.02
2019-05-16T04:08:25.559Z,100140.88
2019-05-16T04:10:52.699Z,100134.72
2019-05-16T04:13:21.392Z,100131.01
2019-05-16T04:15:51.780Z,100130.89
2019-05-16T04:18:17.045Z,100125.92
2019-05-16T04:20:43.801Z,100128.87
2019-05-16T04:23:11.170Z,100116.25
2019-05-16T04:25:40.986Z,100121.43
2019-05-16T04:28:07.237Z,100118.52
2019-05-16T04:30:33.993Z,100119.22
2019-05-16T04:33:01.875Z,100122.72
2019-05-16T04:35:31.526Z,100118.06
2019-05-16T04:37:57.386Z,100124.42
2019-05-16T04:40:24.091Z,100124.33
2019-05-16T04:42:51.458Z,100121.70
2019-05-16T04:45:21.115Z,100120.98
2019-05-16T04:47:47.073Z,100118.73
2019-05-16T04:50:15.529Z,100115.33
2019-05-16T04:52:42.271Z,100114.51
2019-05-16T04:55:11.800Z,100107.55
2019-05-16T04:57:41.755Z,100103.14
2019-05-16T05:00:10.871Z,100105.53
2019-05-16T05:02:36.224Z,100104.00
2019-05-16T05:05:03.085Z,100111.68
2019-05-16T05:07:31.322Z,100098.47
2019-05-16T05:10:00.576Z,100097.79
2019-05-16T05:12:26.839Z,100100.64
2019-05-16T05:14:53.546Z,100102.03
2019-05-16T05:17:21.033Z,100102.58
2019-05-16T05:19:50.455Z,100102.82
2019-05-16T05:22:19.885Z,100101.44
2019-05-16T05:24:46.568Z,100091.77
2019-05-16T05:27:13.227Z,100093.67
2019-05-16T05:29:40.010Z,100092.85
2019-05-16T05:32:06.759Z,100098.88
2019-05-16T05:34:33.417Z,100093.11
2019-05-16T05:37:00.394Z,100090.63
2019-05-16T05:39:27.210Z,100087.09
2019-05-16T05:41:53.971Z,100087.44
2019-05-16T05:44:21.284Z,100094.84
2019-05-16T05:46:47.962Z,100083.50
2019-05-16T05:49:14.728Z,100081.02
2019-05-16T05:51:43.522Z,100081.27
2019-05-16T05:54:10.831Z,100079.12
2019-05-16T05:56:39.813Z,100080.95
2019-05-16T05:59:11.359Z,100083.28
2019-05-16T06:01:40.103Z,100079.12
2019-05-16T06:04:05.854Z,100081.16
2019-05-16T06:06:32.531Z,100075.42
2019-05-16T06:09:00.661Z,100073.34
2019-05-16T06:11:27.645Z,100075.24
2019-05-16T06:13:54.421Z,100076.86
2019-05-16T06:16:21.113Z,100060.53
2019-05-16T06:18:50.309Z,100070.63
2019-05-16T06:21:20.091Z,100076.22
2019-05-16T06:23:46.094Z,100078.86
2019-05-16T06:26:12.818Z,100073.09
2019-05-16T06:28:41.216Z,100068.34
2019-05-16T06:31:13.035Z,100058.98
2019-05-16T06:33:36.620Z,100066.84
2019-05-16T06:36:03.388Z,100061.64
2019-05-16T06:38:31.068Z,100059.49
2019-05-16T06:41:00.049Z,100056.29
2019-05-16T06:43:26.487Z,100057.27
2019-05-16T06:45:53.246Z,100054.77
2019-05-16T06:48:21.325Z,100062.02
2019-05-16T06:50:51.490Z,100051.72
2019-05-16T06:53:17.182Z,100055.47
2019-05-16T06:55:43.950Z,100049.11
2019-05-16T06:58:10.760Z,100051.75
2019-05-16T07:00:37.514Z,100051.34
2019-05-16T07:03:04.302Z,100054.19
2019-05-16T07:05:31.098Z,100049.05
2019-05-16T07:08:20.150Z,100045.59
2019-05-16T07:10:46.129Z,100054.37
2019-05-16T07:13:12.934Z,100049.98
2019-05-16T07:15:40.230Z,100050.14
2019-05-16T07:18:10.898Z,100041.72
2019-05-16T07:20:37.056Z,100047.44
2019-05-16T07:23:03.923Z,100044.31
2019-05-16T07:25:30.980Z,100043.09
2019-05-16T07:28:17.397Z,100035.28
2019-05-16T07:30:44.186Z,100040.34
2019-05-16T07:33:11.017Z,100046.42
2019-05-16T07:35:40.033Z,100034.34
2019-05-16T07:38:06.489Z,100025.99
2019-05-16T07:40:33.336Z,100029.94
2019-05-16T07:43:00.172Z,100027.56
2019-05-16T07:45:26.964Z,100026.44
2019-05-16T07:47:53.792Z,100023.34
2019-05-16T07:50:20.625Z,100015.20
2019-05-16T07:52:47.324Z,100020.69
2019-05-16T07:55:14.493Z,100026.17
2019-05-16T07:57:41.162Z,100019.79
2019-05-16T08:00:09.720Z,100018.58
2019-05-16T08:02:36.572Z,100010.33
2019-05-16T08:05:03.648Z,100009.63
2019-05-16T08:07:33.633Z,100012.52
2019-05-16T08:09:59.873Z,100013.23
2019-05-16T08:12:27.458Z,100019.42
2019-05-16T08:14:54.323Z,100008.36
2019-05-16T08:17:21.828Z,100000.53
2019-05-16T08:19:50.648Z,99999.83
2019-05-16T08:22:17.257Z,100008.62
2019-05-16T08:24:44.029Z,99987.20
2019-05-16T08:27:12.158Z,99995.36
2019-05-16T08:29:40.436Z,99986.87
2019-05-16T08:32:11.193Z,100001.30
2019-05-16T08:34:37.050Z,99990.55
2019-05-16T08:37:03.720Z,99980.81
2019-05-16T08:39:31.188Z,99987.84
2019-05-16T08:42:07.052Z,99986.81
2019-05-16T08:44:26.814Z,99991.38
2019-05-16T08:46:57.982Z,99988.59
2019-05-16T08:49:22.478Z,99992.13
2019-05-16T08:51:52.889Z,99984.61
2019-05-16T08:54:18.017Z,99985.07
2019-05-16T08:56:44.786Z,99982.47
2019-05-16T08:59:13.489Z,99986.56
2019-05-16T09:01:51.566Z,99984.52
2019-05-16T09:04:11.930Z,99988.43
2019-05-16T09:06:42.203Z,99991.63
2019-05-16T09:09:26.630Z,99974.56
2019-05-16T09:11:44.135Z,99978.95
2019-05-16T09:14:07.721Z,99976.86
2019-05-16T09:16:33.348Z,99972.97
2019-05-16T09:19:00.042Z,99974.34
2019-05-16T09:21:27.566Z,99966.81
2019-05-16T09:23:57.814Z,99961.74
2019-05-16T09:26:24.053Z,99964.91
2019-05-16T09:28:50.839Z,99950.84
2019-05-16T09:31:18.450Z,99954.52
2019-05-16T09:33:47.438Z,99953.02
2019-05-16T09:36:17.236Z,99948.93
2019-05-16T09:38:42.788Z,99943.77
2019-05-16T09:41:09.554Z,99943.89
2019-05-16T09:43:39.794Z,99941.88
2019-05-16T09:46:07.850Z,99935.52
2019-05-16T09:48:37.735Z,99929.20
2019-05-16T09:51:03.557Z,99929.78
2019-05-16T09:53:30.313Z,99924.85
2019-05-16T09:55:57.711Z,99915.84
2019-05-16T09:58:24.578Z,99920.08
2019-05-16T10:00:51.356Z,99928.59
2019-05-16T10:03:22.339Z,99922.58
2019-05-16T10:05:46.944Z,99915.32
2019-05-16T10:08:14.074Z,99909.00
2019-05-16T10:10:41.096Z,99897.62
2019-05-16T10:13:07.751Z,99885.48
2019-05-16T10:15:34.531Z,99883.25
2019-05-16T10:18:01.291Z,99882.05
2019-05-16T10:20:28.083Z,99877.41
2019-05-16T10:22:57.683Z,99884.64
2019-05-16T10:25:23.530Z,99880.48
2019-05-16T10:27:50.368Z,99885.11
2019-05-16T10:30:17.757Z,99834.00
2019-05-16T10:32:44.635Z,99864.05
2019-05-16T10:35:11.902Z,99862.84
2019-05-16T10:37:38.708Z,99863.80
2019-05-16T10:40:07.307Z,99865.09
2019-05-16T10:42:37.946Z,99860.91
2019-05-16T10:45:08.624Z,99860.30
2019-05-16T10:47:37.100Z,99859.00
2019-05-16T10:50:05.152Z,99854.08
2019-05-16T10:52:31.942Z,99851.13
2019-05-16T10:55:02.283Z,99847.35
2019-05-16T10:57:29.926Z,99808.27
2019-05-16T11:00:06.498Z,99842.08
2019-05-16T11:02:27.393Z,99847.55
2019-05-16T11:05:02.857Z,99849.70
2019-05-16T11:07:22.384Z,99844.64
2019-05-16T11:09:57.883Z,99849.83
2019-05-16T11:12:20.523Z,99839.16
2019-05-16T11:14:47.850Z,99843.80
2019-05-16T11:17:14.476Z,99842.19
2019-05-16T11:19:41.618Z,99839.94
2019-05-16T11:22:08.326Z,99848.98
2019-05-16T11:24:37.707Z,99842.64
2019-05-16T11:27:07.408Z,99832.72
2019-05-16T11:29:36.482Z,99830.75
2019-05-16T11:32:02.686Z,99828.25
2019-05-16T11:34:31.837Z,99823.94
2019-05-16T11:37:01.687Z,99830.44
2019-05-16T11:39:28.444Z,99826.77
2019-05-16T11:41:57.119Z,99825.94
2019-05-16T11:44:28.173Z,99830.48
2019-05-16T11:46:52.620Z,99826.99
2019-05-16T11:49:19.388Z,99826.49
2019-05-16T11:51:47.523Z,99823.02
2019-05-16T11:54:14.319Z,99819.73
2019-05-16T11:57:02.431Z,99821.41
2019-05-16T11:59:31.380Z,99816.25
2019-05-16T12:01:58.102Z,99819.93
2019-05-16T12:04:24.664Z,99811.85
2019-05-16T12:06:51.356Z,99807.93
2019-05-16T12:09:18.160Z,99802.80
2019-05-16T12:11:45.130Z,99801.77
2019-05-16T12:14:11.718Z,99802.94
2019-05-16T12:16:40.566Z,99795.78
2019-05-16T12:19:07.276Z,99786.87
2019-05-16T12:21:35.397Z,99791.33
2019-05-16T12:24:03.086Z,99786.17
2019-05-16T12:26:29.673Z,99781.92
2019-05-16T12:28:57.285Z,99777.65
2019-05-16T12:31:24.243Z,99770.91
2019-05-16T12:33:50.939Z,99776.44
2019-05-16T12:36:17.786Z,99775.38
2019-05-16T12:38:46.770Z,99775.38
2019-05-16T12:41:13.265Z,99770.97
2019-05-16T12:43:49.539Z,99774.89
2019-05-16T12:46:11.592Z,99767.55
2019-05-16T12:48:47.428Z,99770.92
2019-05-16T12:51:14.075Z,99773.72
2019-05-16T12:53:43.746Z,99770.56
2019-05-16T12:56:10.414Z,99764.27
2019-05-16T12:58:42.176Z,99758.02
2019-05-16T13:01:09.229Z,99762.73
2019-05-16T13:03:37.778Z,99759.56
2019-05-16T13:06:04.936Z,99755.78
2019-05-16T13:08:34.052Z,99758.95
2019-05-16T13:11:01.059Z,99747.16
2019-05-16T13:13:28.020Z,99745.98
2019-05-16T13:15:54.859Z,99735.45
2019-05-16T13:18:21.576Z,99736.40
2019-05-16T13:20:48.378Z,99729.68
2019-05-16T13:23:18.072Z,99727.78
2019-05-16T13:25:43.859Z,99725.75
2019-05-16T13:28:12.752Z,99727.32
2019-05-16T13:30:39.739Z,99725.26
2019-05-16T13:33:07.310Z,99716.05
2019-05-16T13:35:36.751Z,99715.09
2019-05-16T13:38:03.043Z,99704.67
2019-05-16T13:40:29.757Z,99693.86
2019-05-16T13:42:57.380Z,99693.91
2019-05-16T13:45:26.990Z,99693.27
2019-05-16T13:47:52.686Z,99686.11
2019-05-16T13:50:19.564Z,99678.55
2019-05-16T13:52:48.092Z,99678.27
2019-05-16T13:55:16.771Z,99675.77
2019-05-16T13:57:43.740Z,99672.19
2019-05-16T14:00:12.626Z,99675.66
2019-05-16T14:02:41.771Z,99670.29
2019-05-16T14:05:29.866Z,99669.17
2019-05-16T14:07:57.250Z,99673.41
2019-05-16T14:10:23.939Z,99663.43
2019-05-16T14:12:50.604Z,99658.66
2019-05-16T14:15:18.255Z,99655.09
2019-05-16T14:17:45.087Z,99649.43
2019-05-16T14:20:14.934Z,99644.02
2019-05-16T14:22:41.399Z,99638.64
2019-05-16T14:25:08.495Z,99653.52
2019-05-16T14:27:37.851Z,99631.92
2019-05-16T14:30:07.428Z,99628.26
2019-05-16T14:32:33.502Z,99626.17
2019-05-16T14:35:00.212Z,99620.09
2019-05-16T14:37:27.105Z,99620.28
2019-05-16T14:39:57.826Z,99616.89
2019-05-16T14:42:23.805Z,99611.89
2019-05-16T14:45:06.715Z,99603.09
2019-05-16T14:47:19.067Z,99606.09
2019-05-16T14:49:48.672Z,99602.96
2019-05-16T14:52:14.409Z,99605.59
2019-05-16T14:54:41.075Z,99602.39
2019-05-16T14:57:07.880Z,99598.34
2019-05-16T14:59:36.493Z,99598.98
2019-05-16T15:02:07.102Z,99601.02
2019-05-16T15:04:33.777Z,99592.68
2019-05-16T15:07:00.548Z,99594.34
2019-05-16T15:09:28.599Z,99587.49
2019-05-16T15:11:58.142Z,99587.53
2019-05-16T15:14:23.981Z,99586.14
2019-05-16T15:16:51.988Z,99579.73
2019-05-16T15:19:18.773Z,99572.19
2019-05-16T15:21:47.635Z,99565.69
2019-05-16T15:24:14.010Z,99565.66
2019-05-16T15:26:40.844Z,99558.37
2019-05-16T15:29:08.311Z,99551.20
2019-05-16T15:31:36.346Z,99558.02
2019-05-16T15:34:03.711Z,99555.94
2019-05-16T15:36:30.393Z,99552.65
2019-05-16T15:38:59.563Z,99549.16
2019-05-16T15:41:27.296Z,99549.13
2019-05-16T15:43:59.004Z,99554.51
2019-05-16T15:46:23.352Z,99549.75
2019-05-16T15:48:50.323Z,99552.48
2019-05-16T15:51:38.536Z,99547.89
2019-05-16T15:54:06.721Z,99543.45
2019-05-16T15:56:34.077Z,99550.33
2019-05-16T15:59:02.373Z,99544.55
2019-05-16T16:01:29.026Z,99542.55
2019-05-16T16:03:58.589Z,99535.41
2019-05-16T16:06:27.447Z,99533.75
2019-05-16T16:08:54.100Z,99531.75
2019-05-16T16:11:22.295Z,99528.04
2019-05-16T16:13:48.990Z,99528.24
2019-05-16T16:16:17.403Z,99530.10
2019-05-16T16:18:46.701Z,99519.70
2019-05-16T16:21:12.937Z,99517.88
2019-05-16T16:23:39.723Z,99514.00
2019-05-16T16:26:07.567Z,99479.09
2019-05-16T16:28:37.905Z,99507.25
2019-05-16T16:31:03.881Z,99515.02
2019-05-16T16:33:30.568Z,99511.04
2019-05-16T16:35:57.416Z,99505.36
2019-05-16T16:38:24.133Z,99501.44
2019-05-16T16:40:50.791Z,99493.53
2019-05-16T16:43:17.449Z,99496.45
2019-05-16T16:45:47.732Z,99494.38
2019-05-16T16:48:13.210Z,99497.57
2019-05-16T16:50:40.847Z,99495.11
2019-05-16T16:53:07.627Z,99506.13
2019-05-16T16:55:36.823Z,99495.38
2019-05-16T16:58:09.518Z,99492.23
2019-05-16T17:00:38.426Z,99490.10
2019-05-16T17:03:10.411Z,99491.41
2019-05-16T17:05:36.996Z,99499.84
2019-05-16T17:08:03.738Z,99495.77
2019-05-16T17:10:30.502Z,99495.66
2019-05-16T17:12:57.771Z,99490.84
2019-05-16T17:15:27.026Z,99490.08
2019-05-16T17:17:53.442Z,99489.75
2019-05-16T17:20:21.114Z,99490.75
2019-05-16T17:22:47.886Z,99483.94
2019-05-16T17:25:14.855Z,99487.16
2019-05-16T17:27:41.646Z,99480.66
2019-05-16T17:30:13.857Z,99480.55
2019-05-16T17:32:43.430Z,99484.17
2019-05-16T17:35:10.184Z,99478.66
2019-05-16T17:37:37.489Z,99472.52
2019-05-16T17:40:05.257Z,99471.56
2019-05-16T17:42:34.493Z,99478.00
2019-05-16T17:45:00.595Z,99476.50
2019-05-16T17:47:27.296Z,99476.00
2019-05-16T17:49:54.065Z,99472.98
2019-05-16T17:52:20.644Z,99481.35
2019-05-16T17:54:47.424Z,99485.27
2019-05-16T17:57:14.180Z,99486.23
2019-05-16T17:59:40.852Z,99487.89
2019-05-16T18:02:07.536Z,99486.93
2019-05-16T18:04:34.217Z,99486.89
2019-05-16T18:07:00.879Z,99483.86
2019-05-16T18:09:27.884Z,99481.17
2019-05-16T18:11:54.650Z,99486.76
2019-05-16T18:14:21.434Z,99484.80
2019-05-16T18:16:57.876Z,99487.25
2019-05-16T18:19:17.348Z,99490.37
2019-05-16T18:21:46.443Z,99488.79
2019-05-16T18:24:13.285Z,99489.22
2019-05-16T18:26:40.071Z,99482.77
2019-05-16T18:29:07.546Z,99485.80
2019-05-16T18:31:34.369Z,99484.77
2019-05-16T18:34:01.084Z,99482.08
2019-05-16T18:36:27.708Z,99480.34
2019-05-16T18:38:54.287Z,99485.31
2019-05-16T18:41:21.945Z,99478.22
2019-05-16T18:43:48.764Z,99477.31
2019-05-16T18:46:16.352Z,99483.77
2019-05-16T18:48:43.201Z,99480.08
2019-05-16T18:51:10.016Z,99475.27
2019-05-16T18:53:39.249Z,99468.41
2019-05-16T18:56:07.759Z,99470.03
2019-05-16T18:58:37.025Z,99466.81
2019-05-16T19:01:03.337Z,99469.23
2019-05-16T19:03:30.378Z,99474.44
2019-05-16T19:05:57.398Z,99465.05
2019-05-16T19:08:26.877Z,99465.84
2019-05-16T19:10:52.950Z,99466.57
2019-05-16T19:13:19.628Z,99468.56
2019-05-16T19:15:49.239Z,99470.95
2019-05-16T19:18:17.070Z,99465.45
2019-05-16T19:20:46.069Z,99470.22
2019-05-16T19:23:12.550Z,99467.42
2019-05-16T19:25:39.328Z,99458.70
2019-05-16T19:28:07.030Z,99466.66
2019-05-16T19:30:37.542Z,99462.41
2019-05-16T19:33:06.774Z,99461.64
2019-05-16T19:35:33.403Z,99470.90
2019-05-16T19:38:01.425Z,99466.88
2019-05-16T19:40:31.172Z,99464.08
2019-05-16T19:42:57.741Z,99458.52
2019-05-16T19:45:26.449Z,99460.52
2019-05-16T19:47:53.437Z,99462.44
2019-05-16T19:50:22.364Z,99455.27
2019-05-16T19:52:48.926Z,99457.08
2019-05-16T19:55:17.832Z,99453.56
2019-05-16T19:57:46.522Z,99452.11
2019-05-16T20:00:13.659Z,99462.84
2019-05-16T20:02:40.432Z,99463.03
2019-05-16T20:05:08.341Z,99466.00
2019-05-16T20:07:37.241Z,99466.88
2019-05-16T20:10:06.993Z,99459.17
2019-05-16T20:12:33.621Z,99456.14
2019-05-16T20:15:08.188Z,99451.92
2019-05-16T20:17:29.224Z,99453.05
2019-05-16T20:19:56.383Z,99447.47
2019-05-16T20:22:23.287Z,99455.58
2019-05-16T20:24:50.042Z,99446.82
2019-05-16T20:27:19.474Z,99444.86
2019-05-16T20:29:47.461Z,99444.96
2019-05-16T20:32:16.709Z,99442.30
2019-05-16T20:34:42.939Z,99446.11
2019-05-16T20:37:09.749Z,99443.77
2019-05-16T20:39:37.138Z,99442.98
2019-05-16T20:42:04.300Z,99437.87
2019-05-16T20:44:31.091Z,99442.53
2019-05-16T20:46:57.988Z,99440.98
2019-05-16T20:49:26.990Z,99443.67
2019-05-16T20:51:53.460Z,99442.72
2019-05-16T20:54:20.207Z,99445.64
2019-05-16T20:56:49.467Z,99443.93
2019-05-16T20:59:17.439Z,99437.69
2019-05-16T21:01:46.429Z,99437.95
2019-05-16T21:04:13.358Z,99440.48
2019-05-16T21:06:40.138Z,99427.91
2019-05-16T21:09:06.911Z,99437.80
2019-05-16T21:11:33.738Z,99430.73
2019-05-16T21:14:00.762Z,99436.42
2019-05-16T21:16:27.464Z,99437.69
2019-05-16T21:18:57.376Z,99437.95
2019-05-16T21:21:23.710Z,99443.36
2019-05-16T21:23:50.371Z,99436.95
2019-05-16T21:26:17.062Z,99422.12
2019-05-16T21:28:43.623Z,99420.23
2019-05-16T21:31:10.282Z,99419.41
2019-05-16T21:33:37.356Z,99417.67
2019-05-16T21:36:04.129Z,99410.61
2019-05-16T21:38:30.945Z,99410.38
2019-05-16T21:40:58.383Z,99408.18
2019-05-16T21:43:27.143Z,99418.16
2019-05-16T21:45:53.931Z,99404.60
2019-05-16T21:48:20.708Z,99416.17
2019-05-16T21:50:47.488Z,99405.25
2019-05-16T21:53:14.282Z,99413.98
2019-05-16T21:55:41.003Z,99409.62
2019-05-16T21:58:08.007Z,99414.98
2019-05-16T22:00:42.403Z,99412.29
2019-05-16T22:03:09.291Z,99410.69
2019-05-16T22:05:37.576Z,99406.42
2019-05-16T22:08:04.663Z,99409.27
2019-05-16T22:10:31.691Z,99405.05
2019-05-16T22:13:07.762Z,99408.34
2019-05-16T22:15:36.606Z,99400.08
2019-05-16T22:18:03.662Z,99399.84
2019-05-16T22:20:30.432Z,99405.13
2019-05-16T22:22:58.431Z,99400.52
2019-05-16T22:25:27.270Z,99400.21
2019-05-16T22:27:54.179Z,99393.05
2019-05-16T22:30:20.954Z,99391.72
2019-05-16T22:32:47.867Z,99390.33
2019-05-16T22:35:37.539Z,99389.11
2019-05-16T22:38:06.535Z,99387.71
2019-05-16T22:40:33.464Z,99394.72
2019-05-16T22:43:00.121Z,99437.93
2019-05-16T22:45:27.297Z,99389.70
2019-05-16T22:47:53.978Z,99423.36
2019-05-16T22:50:20.732Z,99392.34
2019-05-16T22:52:47.514Z,99385.28
2019-05-16T22:55:16.837Z,99380.70
2019-05-16T22:57:43.399Z,99381.77
2019-05-16T23:00:13.522Z,99385.67
2019-05-16T23:02:40.234Z,99385.55
2019-05-16T23:05:07.473Z,99381.97
2019-05-16T23:07:36.770Z,99375.87
2019-05-16T23:10:04.198Z,99369.53
2019-05-16T23:12:30.868Z,99369.56
2019-05-16T23:14:57.547Z,99378.95
2019-05-16T23:17:26.578Z,99372.22
2019-05-16T23:19:52.690Z,99376.59
2019-05-16T23:22:19.815Z,99366.12
2019-05-16T23:24:46.520Z,99367.61
2019-05-16T23:27:13.272Z,99365.28
2019-05-16T23:29:39.963Z,99365.28
2019-05-16T23:32:07.449Z,99362.11
2019-05-16T23:34:37.331Z,99362.59
2019-05-16T23:37:06.326Z,99356.27
2019-05-16T23:39:32.824Z,99352.84
2019-05-16T23:41:59.503Z,99355.93
2019-05-16T23:44:26.227Z,99343.69
2019-05-16T23:46:53.021Z,99345.81
2019-05-16T23:49:19.605Z,99352.12
2019-05-16T23:51:47.297Z,99344.49
2019-05-16T23:54:14.286Z,99341.77
2019-05-16T23:56:41.067Z,99346.75
2019-05-16T23:59:07.850Z,99350.39
